Time;durP1;ratioP1;P1;durP2;ratioP2;P2;SDS_P1;SDS_P2;PMS_P1;PMS_P2;Temp;Humidity;BMP_temperature;BMP_pressure;BME280_temperature;BME280_humidity;BME280_pressure;Samples;Min_cycle;Max_cycle;Signal;HPM_P1;HPM_P2
2024/02/11 00:00:28;;;;;;;;;27.50;22.50;;;;;;;;5041934;28;10930;-82
2024/02/11 00:02:57;;;;;;;;;24.75;21.50;;;;;;;;5053687;28;11164;-83
2024/02/11 00:05:27;;;;;;;;;28.50;24.00;;;;;;;;5054576;28;11154;-83
2024/02/11 00:07:56;;;;;;;;;34.00;28.25;;;;;;;;5053333;28;11113;-84
2024/02/11 00:10:27;;;;;;;;;29.75;26.25;;;;;;;;5054253;28;11227;-83
2024/02/11 00:12:54;;;;;;;;;18.50;16.75;;;;;;;;5049686;28;11954;-83
2024/02/11 00:15:24;;;;;;;;;26.75;22.50;;;;;;;;5048781;28;10990;-83
2024/02/11 00:17:51;;;;;;;;;26.00;23.25;;;;;;;;5047860;28;11148;-83
2024/02/11 00:20:19;;;;;;;;;29.00;21.25;;;;;;;;5048031;28;11280;-83
2024/02/11 00:22:48;;;;;;;;;23.75;20.75;;;;;;;;5047319;28;11158;-83
2024/02/11 00:25:16;;;;;;;;;25.00;21.00;;;;;;;;5048102;28;11146;-83
2024/02/11 00:27:49;;;;;;;;;21.00;21.00;;;;;;;;5047281;28;11071;-83
2024/02/11 00:30:17;;;;;;;;;25.00;22.25;;;;;;;;5051065;28;11149;-83
2024/02/11 00:32:48;;;;;;;;;18.50;18.50;;;;;;;;5039117;28;11040;-83
2024/02/11 00:35:17;;;;;;;;;21.00;20.75;;;;;;;;5050931;28;11125;-82
2024/02/11 00:37:51;;;;;;;;;20.00;18.00;;;;;;;;5051831;28;11215;-83
2024/02/11 00:40:19;;;;;;;;;25.00;20.75;;;;;;;;5051669;28;11025;-82
2024/02/11 00:42:46;;;;;;;;;20.75;17.50;;;;;;;;5053546;28;11384;-83
2024/02/11 00:45:14;;;;;;;;;23.25;23.25;;;;;;;;5052611;28;11012;-84
2024/02/11 00:47:47;;;;;;;;;23.00;18.25;;;;;;;;5051880;28;11041;-83
2024/02/11 00:50:16;;;;;;;;;26.50;20.75;;;;;;;;5050931;28;10883;-83
2024/02/11 00:52:44;;;;;;;;;15.75;15.75;;;;;;;;5052056;28;11121;-81
2024/02/11 00:55:14;;;;;;;;;21.75;17.25;;;;;;;;5050727;28;10866;-82
2024/02/11 00:57:41;;;;;;;;;17.75;17.75;;;;;;;;5051246;28;10914;-82
2024/02/11 01:00:13;;;;;;;;;21.50;15.50;;;;;;;;5050287;28;10907;-82
2024/02/11 01:02:41;;;;;;;;;22.25;21.50;;;;;;;;5051000;28;11028;-82
2024/02/11 01:05:10;;;;;;;;;21.00;19.00;;;;;;;;5050992;28;10879;-82
2024/02/11 01:07:40;;;;;;;;;18.25;15.75;;;;;;;;5050769;28;10887;-82
2024/02/11 01:10:10;;;;;;;;;18.00;18.00;;;;;;;;5051101;28;10936;-82
2024/02/11 01:12:39;;;;;;;;;15.75;15.75;;;;;;;;5050636;28;10869;-83
2024/02/11 01:15:07;;;;;;;;;14.50;14.50;;;;;;;;5039767;28;10791;-81
2024/02/11 01:17:35;;;;;;;;;18.50;16.50;;;;;;;;5050302;28;11790;-83
2024/02/11 01:20:02;;;;;;;;;17.50;16.25;;;;;;;;5050783;28;10799;-82
2024/02/11 01:22:30;;;;;;;;;20.50;18.25;;;;;;;;5050829;28;10808;-83
2024/02/11 01:25:02;;;;;;;;;13.25;4.00;;;;;;;;5041200;28;10824;-81
2024/02/11 01:27:29;;;;;;;;;9.25;8.25;;;;;;;;5050668;28;10712;-83
2024/02/11 01:29:57;;;;;;;;;14.50;14.25;;;;;;;;5050897;28;10652;-82
2024/02/11 01:32:25;;;;;;;;;12.50;11.75;;;;;;;;5049775;28;10685;-81
2024/02/11 01:34:52;;;;;;;;;11.75;11.25;;;;;;;;5050857;28;10665;-83
2024/02/11 01:37:19;;;;;;;;;14.75;14.75;;;;;;;;5050479;28;10824;-83
2024/02/11 01:39:47;;;;;;;;;17.75;15.75;;;;;;;;5050170;28;10744;-84
2024/02/11 01:42:18;;;;;;;;;11.50;11.50;;;;;;;;5050972;28;10732;-83
2024/02/11 01:44:45;;;;;;;;;10.50;10.00;;;;;;;;5051999;28;10893;-83
2024/02/11 01:47:13;;;;;;;;;15.75;11.75;;;;;;;;5054053;28;10836;-84
2024/02/11 01:49:40;;;;;;;;;10.75;10.25;;;;;;;;5053767;28;10958;-85
2024/02/11 01:52:07;;;;;;;;;8.75;8.00;;;;;;;;5053605;28;10652;-83
2024/02/11 01:54:36;;;;;;;;;11.75;10.25;;;;;;;;5052444;28;10884;-84
2024/02/11 01:57:03;;;;;;;;;15.50;10.00;;;;;;;;5054033;28;10943;-81
2024/02/11 01:59:36;;;;;;;;;8.50;8.50;;;;;;;;5053750;28;10650;-82
2024/02/11 02:02:08;;;;;;;;;16.00;11.75;;;;;;;;5039963;28;10553;-80
2024/02/11 02:04:36;;;;;;;;;14.75;10.75;;;;;;;;5049602;28;11558;-82
2024/02/11 02:07:04;;;;;;;;;10.00;10.00;;;;;;;;5049660;28;10833;-81
2024/02/11 02:09:36;;;;;;;;;10.00;9.25;;;;;;;;5049293;28;10733;-83
2024/02/11 02:12:04;;;;;;;;;17.00;11.00;;;;;;;;5049339;28;10855;-82
2024/02/11 02:14:33;;;;;;;;;10.25;10.25;;;;;;;;5049019;28;10782;-81
2024/02/11 02:17:00;;;;;;;;;9.75;8.75;;;;;;;;5049756;28;10807;-82
2024/02/11 02:19:27;;;;;;;;;15.25;13.00;;;;;;;;5052837;28;10689;-82
2024/02/11 02:21:56;;;;;;;;;13.25;11.25;;;;;;;;5075593;28;10653;-83
2024/02/11 02:24:25;;;;;;;;;11.25;10.00;;;;;;;;5060684;28;10727;-81
2024/02/11 02:26:53;;;;;;;;;12.00;9.00;;;;;;;;5050964;28;11344;-82
2024/02/11 02:29:20;;;;;;;;;11.25;10.00;;;;;;;;5049053;28;11221;-82
2024/02/11 02:31:48;;;;;;;;;9.50;8.25;;;;;;;;5050054;28;10509;-82
2024/02/11 02:34:14;;;;;;;;;13.50;12.25;;;;;;;;5050766;28;10558;-82
2024/02/11 02:36:41;;;;;;;;;15.50;11.00;;;;;;;;5050927;28;10561;-80
2024/02/11 02:39:13;;;;;;;;;13.25;10.75;;;;;;;;5050289;28;10760;-81
2024/02/11 02:41:42;;;;;;;;;12.25;10.75;;;;;;;;5049092;28;11542;-82
2024/02/11 02:44:09;;;;;;;;;9.50;7.25;;;;;;;;5049052;28;10554;-81
2024/02/11 02:46:37;;;;;;;;;10.50;9.00;;;;;;;;5048712;28;10561;-83
2024/02/11 02:49:04;;;;;;;;;8.25;8.25;;;;;;;;5048969;28;10659;-83
2024/02/11 02:51:31;;;;;;;;;8.75;8.50;;;;;;;;5048824;28;10466;-83
2024/02/11 02:54:02;;;;;;;;;12.50;11.00;;;;;;;;5050138;28;10672;-85
2024/02/11 02:56:32;;;;;;;;;12.25;10.25;;;;;;;;5049742;28;10756;-85
2024/02/11 02:59:05;;;;;;;;;14.75;12.00;;;;;;;;5049038;28;10486;-82
2024/02/11 03:01:33;;;;;;;;;10.00;9.50;;;;;;;;5048443;28;10739;-85
2024/02/11 03:04:01;;;;;;;;;10.75;10.75;;;;;;;;5049972;28;10565;-85
2024/02/11 03:06:33;;;;;;;;;15.25;10.50;;;;;;;;5048717;28;10584;-82
2024/02/11 03:09:07;;;;;;;;;11.00;11.00;;;;;;;;5048847;28;10586;-82
2024/02/11 03:11:37;;;;;;;;;15.75;12.00;;;;;;;;5048167;28;10474;-81
2024/02/11 03:14:05;;;;;;;;;11.25;9.00;;;;;;;;5048497;28;10571;-81
2024/02/11 03:16:32;;;;;;;;;8.25;5.75;;;;;;;;5037041;28;10465;-82
2024/02/11 03:18:59;;;;;;;;;7.00;6.75;;;;;;;;5047427;28;10490;-82
2024/02/11 03:21:28;;;;;;;;;9.75;9.75;;;;;;;;5048792;28;10517;-82
2024/02/11 03:23:55;;;;;;;;;7.75;7.75;;;;;;;;5049100;28;10313;-83
2024/02/11 03:26:23;;;;;;;;;13.00;9.50;;;;;;;;5048518;28;10486;-82
2024/02/11 03:28:51;;;;;;;;;8.50;8.50;;;;;;;;5048553;28;10457;-83
2024/02/11 03:31:19;;;;;;;;;11.50;9.50;;;;;;;;5048515;28;10274;-83
2024/02/11 03:33:49;;;;;;;;;9.75;9.25;;;;;;;;5051135;28;10478;-84
2024/02/11 03:36:18;;;;;;;;;10.25;8.75;;;;;;;;5052815;28;10440;-84
2024/02/11 03:38:45;;;;;;;;;11.75;8.75;;;;;;;;5041376;28;10541;-83
2024/02/11 03:41:13;;;;;;;;;10.00;8.00;;;;;;;;5052997;28;10482;-85
2024/02/11 03:43:40;;;;;;;;;6.50;4.00;;;;;;;;5053538;28;10297;-83
2024/02/11 03:46:09;;;;;;;;;10.50;10.50;;;;;;;;5053523;28;10249;-83
2024/02/11 03:48:36;;;;;;;;;8.00;8.00;;;;;;;;5054337;28;10454;-82
2024/02/11 03:51:06;;;;;;;;;14.00;11.00;;;;;;;;5052690;28;10523;-84
2024/02/11 03:53:34;;;;;;;;;8.50;7.00;;;;;;;;5048536;28;10394;-83
2024/02/11 03:56:06;;;;;;;;;9.75;8.25;;;;;;;;5047732;28;10491;-82
2024/02/11 03:58:34;;;;;;;;;9.00;9.00;;;;;;;;5048055;28;10410;-82
2024/02/11 04:01:01;;;;;;;;;8.50;6.00;;;;;;;;5047908;28;10272;-84
2024/02/11 04:03:33;;;;;;;;;7.75;6.00;;;;;;;;5050395;28;10242;-82
2024/02/11 04:06:01;;;;;;;;;5.00;5.00;;;;;;;;5051963;28;10445;-82
2024/02/11 04:08:29;;;;;;;;;8.25;8.25;;;;;;;;5051544;28;10259;-84
2024/02/11 04:10:57;;;;;;;;;9.50;7.50;;;;;;;;5052111;28;10417;-83
2024/02/11 04:13:26;;;;;;;;;12.50;9.00;;;;;;;;5051435;28;10477;-82
2024/02/11 04:15:56;;;;;;;;;5.25;3.25;;;;;;;;5050781;28;10613;-82
2024/02/11 04:18:23;;;;;;;;;8.75;6.50;;;;;;;;5051713;28;10350;-83
2024/02/11 04:20:54;;;;;;;;;7.00;6.00;;;;;;;;5053230;28;11707;-84
2024/02/11 04:23:22;;;;;;;;;9.25;7.75;;;;;;;;5053592;28;10337;-82
2024/02/11 04:25:50;;;;;;;;;10.00;8.00;;;;;;;;5052683;28;10256;-84
2024/02/11 04:28:20;;;;;;;;;7.50;6.75;;;;;;;;5052945;28;10337;-82
2024/02/11 04:30:47;;;;;;;;;8.25;5.00;;;;;;;;5049817;28;10247;-85
2024/02/11 04:33:20;;;;;;;;;7.75;6.75;;;;;;;;5051755;28;10219;-83
2024/02/11 04:35:47;;;;;;;;;7.75;7.75;;;;;;;;5051298;28;10250;-82
2024/02/11 04:38:17;;;;;;;;;7.50;7.00;;;;;;;;5051533;28;10452;-82
2024/02/11 04:40:45;;;;;;;;;8.75;6.25;;;;;;;;5051445;28;10350;-82
2024/02/11 04:43:12;;;;;;;;;6.25;6.25;;;;;;;;5052100;28;10247;-82
2024/02/11 04:45:40;;;;;;;;;8.50;5.75;;;;;;;;5051273;28;10288;-82
2024/02/11 04:48:09;;;;;;;;;5.00;5.00;;;;;;;;5051143;28;10366;-83
2024/02/11 04:50:37;;;;;;;;;6.25;6.25;;;;;;;;5053481;28;10250;-82
2024/02/11 04:53:08;;;;;;;;;9.00;6.00;;;;;;;;5052942;28;10256;-83
2024/02/11 04:55:39;;;;;;;;;5.75;5.00;;;;;;;;5052012;28;10372;-84
2024/02/11 04:58:11;;;;;;;;;3.00;3.00;;;;;;;;5104068;28;10235;-82
2024/02/11 05:00:40;;;;;;;;;7.25;5.00;;;;;;;;5062841;28;10742;-83
2024/02/11 05:03:07;;;;;;;;;6.50;4.00;;;;;;;;5046061;28;10298;-83
2024/02/11 05:05:37;;;;;;;;;5.25;5.25;;;;;;;;5049848;28;10222;-82
2024/02/11 05:08:07;;;;;;;;;4.00;4.00;;;;;;;;5050325;28;10097;-82
2024/02/11 05:10:37;;;;;;;;;8.00;5.75;;;;;;;;5050763;28;11075;-85
2024/02/11 05:13:05;;;;;;;;;8.00;5.00;;;;;;;;5050892;28;10186;-83
2024/02/11 05:15:33;;;;;;;;;3.00;1.75;;;;;;;;5050175;28;10170;-82
2024/02/11 05:18:03;;;;;;;;;6.00;3.50;;;;;;;;5051514;28;10294;-84
2024/02/11 05:20:31;;;;;;;;;5.75;4.25;;;;;;;;5051921;28;10100;-84
2024/02/11 05:23:09;;;;;;;;;3.75;3.75;;;;;;;;5052939;28;10026;-83
2024/02/11 05:25:38;;;;;;;;;5.00;4.50;;;;;;;;5054552;28;10105;-83
2024/02/11 05:28:09;;;;;;;;;3.25;3.00;;;;;;;;5055479;28;10171;-83
2024/02/11 05:30:38;;;;;;;;;4.00;4.00;;;;;;;;5055446;28;10873;-85
2024/02/11 05:33:08;;;;;;;;;8.75;5.75;;;;;;;;5056008;28;10191;-81
2024/02/11 05:35:37;;;;;;;;;6.00;4.50;;;;;;;;5054200;28;10196;-83
2024/02/11 05:38:06;;;;;;;;;5.00;5.00;;;;;;;;5043643;28;10134;-83
2024/02/11 05:40:35;;;;;;;;;7.25;5.25;;;;;;;;5054707;28;10370;-82
2024/02/11 05:43:05;;;;;;;;;7.00;7.00;;;;;;;;5049961;28;10193;-83
2024/02/11 05:45:33;;;;;;;;;13.75;8.00;;;;;;;;5049803;28;10259;-83
2024/02/11 05:48:00;;;;;;;;;4.50;4.50;;;;;;;;5050602;28;10169;-84
2024/02/11 05:50:30;;;;;;;;;5.50;5.50;;;;;;;;5049430;28;10167;-82
2024/02/11 05:52:59;;;;;;;;;6.25;4.25;;;;;;;;5050093;28;10249;-82
2024/02/11 05:55:26;;;;;;;;;3.00;3.00;;;;;;;;5049328;28;10231;-83
2024/02/11 05:57:54;;;;;;;;;4.00;4.00;;;;;;;;5049577;28;10105;-82
2024/02/11 06:00:24;;;;;;;;;9.50;5.00;;;;;;;;5048658;28;10065;-83
2024/02/11 06:02:55;;;;;;;;;4.50;3.50;;;;;;;;5049794;28;10077;-85
2024/02/11 06:05:23;;;;;;;;;6.25;5.75;;;;;;;;5049280;28;10102;-83
2024/02/11 06:07:51;;;;;;;;;4.50;4.00;;;;;;;;5049515;28;10337;-82
2024/02/11 06:10:20;;;;;;;;;5.75;2.75;;;;;;;;5048398;28;10957;-83
2024/02/11 06:12:48;;;;;;;;;3.25;3.00;;;;;;;;5051212;28;10277;-82
2024/02/11 06:15:20;;;;;;;;;6.25;4.50;;;;;;;;5050130;28;10043;-85
2024/02/11 06:17:49;;;;;;;;;3.25;3.25;;;;;;;;5060858;28;10240;-84
2024/02/11 06:20:23;;;;;;;;;5.25;3.25;;;;;;;;5049786;28;10029;-84
2024/02/11 06:22:52;;;;;;;;;14.00;10.75;;;;;;;;5048987;28;10937;-86
2024/02/11 06:25:20;;;;;;;;;9.50;6.25;;;;;;;;5049160;28;10334;-83
2024/02/11 06:27:49;;;;;;;;;17.50;15.75;;;;;;;;5048368;28;10165;-83
2024/02/11 06:30:17;;;;;;;;;4.50;4.50;;;;;;;;5049171;28;10845;-83
2024/02/11 06:32:45;;;;;;;;;5.00;5.00;;;;;;;;5049570;28;10007;-84
2024/02/11 06:35:14;;;;;;;;;0.00;0.00;;;;;;;;5050607;28;10037;-83
2024/02/11 06:37:43;;;;;;;;;6.75;4.25;;;;;;;;5050107;28;10039;-84
2024/02/11 06:40:14;;;;;;;;;6.50;3.00;;;;;;;;5050457;28;9886;-83
2024/02/11 06:42:42;;;;;;;;;6.00;4.75;;;;;;;;5048557;28;9864;-83
2024/02/11 06:45:12;;;;;;;;;2.00;2.00;;;;;;;;5048590;28;10016;-83
2024/02/11 06:47:40;;;;;;;;;8.00;4.75;;;;;;;;5049237;28;9781;-83
2024/02/11 06:50:09;;;;;;;;;4.00;3.25;;;;;;;;5048958;28;10120;-83
2024/02/11 06:52:37;;;;;;;;;5.25;3.75;;;;;;;;5048918;28;10035;-83
2024/02/11 06:55:05;;;;;;;;;4.50;3.25;;;;;;;;5048489;28;10117;-84
2024/02/11 06:57:34;;;;;;;;;5.00;3.50;;;;;;;;5049006;28;9879;-85
2024/02/11 07:00:02;;;;;;;;;2.75;2.00;;;;;;;;5048833;28;10107;-84
2024/02/11 07:02:34;;;;;;;;;5.50;2.25;;;;;;;;5048952;28;9964;-86
2024/02/11 07:05:02;;;;;;;;;4.00;2.00;;;;;;;;5049415;28;9890;-84
2024/02/11 07:07:30;;;;;;;;;2.75;2.75;;;;;;;;5049382;28;9889;-83
2024/02/11 07:09:59;;;;;;;;;4.50;4.50;;;;;;;;5050119;28;10608;-85
2024/02/11 07:12:26;;;;;;;;;1.00;1.00;;;;;;;;5051601;28;9989;-85
2024/02/11 07:14:53;;;;;;;;;5.50;2.25;;;;;;;;5051640;28;9781;-83
2024/02/11 07:17:20;;;;;;;;;6.25;3.00;;;;;;;;5051999;28;9767;-77
2024/02/11 07:19:49;;;;;;;;;5.00;3.00;;;;;;;;5050577;28;9854;-80
2024/02/11 07:22:17;;;;;;;;;5.00;2.75;;;;;;;;5059152;28;9872;-78
2024/02/11 07:24:44;;;;;;;;;3.00;3.00;;;;;;;;5049377;28;9847;-77
2024/02/11 07:27:14;;;;;;;;;3.00;3.00;;;;;;;;5049531;28;9866;-77
2024/02/11 07:29:41;;;;;;;;;5.00;4.25;;;;;;;;5049810;28;9863;-81
2024/02/11 07:32:08;;;;;;;;;2.75;2.75;;;;;;;;5047517;28;10611;-75
2024/02/11 07:34:36;;;;;;;;;4.25;3.00;;;;;;;;5051904;28;9930;-75
2024/02/11 07:37:07;;;;;;;;;5.50;5.00;;;;;;;;5052572;28;9926;-75
2024/02/11 07:39:38;;;;;;;;;4.75;3.75;;;;;;;;5051966;28;10004;-77
2024/02/11 07:42:06;;;;;;;;;2.00;2.00;;;;;;;;5051568;28;9909;-76
2024/02/11 07:44:39;;;;;;;;;3.25;3.00;;;;;;;;5051809;28;9843;-79
2024/02/11 07:47:07;;;;;;;;;1.25;1.25;;;;;;;;5051061;28;10031;-76
2024/02/11 07:49:35;;;;;;;;;5.50;2.75;;;;;;;;5051329;28;9847;-76
2024/02/11 07:52:02;;;;;;;;;1.50;1.25;;;;;;;;5051265;28;10005;-81
2024/02/11 07:54:31;;;;;;;;;2.00;2.00;;;;;;;;5051674;28;9980;-76
2024/02/11 07:56:59;;;;;;;;;4.25;2.00;;;;;;;;5051087;28;9865;-76
2024/02/11 07:59:26;;;;;;;;;3.00;3.00;;;;;;;;5051971;28;9870;-81
2024/02/11 08:01:55;;;;;;;;;2.00;2.00;;;;;;;;5050801;28;9807;-75
2024/02/11 08:04:22;;;;;;;;;3.00;3.00;;;;;;;;5051994;28;9928;-75
2024/02/11 08:06:49;;;;;;;;;2.75;2.50;;;;;;;;5051191;28;10612;-78
2024/02/11 08:09:17;;;;;;;;;2.25;2.25;;;;;;;;5051449;28;9811;-84
2024/02/11 08:11:44;;;;;;;;;5.25;2.75;;;;;;;;5049376;28;10060;-82
2024/02/11 08:14:11;;;;;;;;;4.00;2.00;;;;;;;;5051250;28;10066;-78
2024/02/11 08:16:38;;;;;;;;;3.00;2.25;;;;;;;;5050554;28;10520;-83
2024/02/11 08:19:08;;;;;;;;;2.75;2.75;;;;;;;;5051850;28;9726;-79
2024/02/11 08:21:38;;;;;;;;;4.00;2.00;;;;;;;;5051423;28;9800;-80
2024/02/11 08:24:06;;;;;;;;;3.75;3.75;;;;;;;;5051158;28;10404;-79
2024/02/11 08:26:35;;;;;;;;;2.75;2.75;;;;;;;;5050957;28;9715;-81
2024/02/11 08:29:04;;;;;;;;;4.75;3.75;;;;;;;;5051362;28;9848;-77
2024/02/11 08:31:32;;;;;;;;;3.50;1.50;;;;;;;;5050993;28;9886;-77
2024/02/11 08:33:59;;;;;;;;;1.75;1.75;;;;;;;;5050511;28;9783;-76
2024/02/11 08:36:28;;;;;;;;;2.50;2.00;;;;;;;;5051187;28;9680;-75
2024/02/11 08:38:56;;;;;;;;;2.00;2.00;;;;;;;;5050891;28;10879;-74
2024/02/11 08:41:23;;;;;;;;;2.00;2.00;;;;;;;;5050734;28;9758;-75
2024/02/11 08:43:50;;;;;;;;;2.00;2.00;;;;;;;;5050240;28;10515;-75
2024/02/11 08:46:18;;;;;;;;;3.00;1.75;;;;;;;;5051041;28;9806;-78
2024/02/11 08:48:45;;;;;;;;;2.00;2.00;;;;;;;;5050496;28;10672;-76
2024/02/11 08:51:15;;;;;;;;;2.00;2.00;;;;;;;;5050676;28;10685;-79
2024/02/11 08:53:43;;;;;;;;;2.75;2.00;;;;;;;;5050390;28;9882;-76
2024/02/11 08:56:11;;;;;;;;;3.50;3.00;;;;;;;;5050651;28;9871;-77
2024/02/11 08:58:38;;;;;;;;;3.25;3.25;;;;;;;;5051012;28;10044;-81
2024/02/11 09:01:21;;;;;;;;;2.50;2.50;;;;;;;;5051821;28;9830;-77
2024/02/11 09:03:49;;;;;;;;;3.00;3.00;;;;;;;;5053014;28;9949;-77
2024/02/11 09:06:17;;;;;;;;;3.25;2.00;;;;;;;;5053306;28;9981;-78
2024/02/11 09:08:46;;;;;;;;;2.25;2.25;;;;;;;;5052588;28;9932;-76
2024/02/11 09:11:15;;;;;;;;;5.00;3.50;;;;;;;;5053119;28;9856;-76
2024/02/11 09:13:43;;;;;;;;;3.75;3.75;;;;;;;;5053484;28;9889;-76
2024/02/11 09:16:11;;;;;;;;;2.00;2.00;;;;;;;;5052213;28;9939;-77
2024/02/11 09:18:38;;;;;;;;;3.00;1.50;;;;;;;;5052506;28;9782;-79
2024/02/11 09:21:08;;;;;;;;;2.75;2.75;;;;;;;;5049255;28;10403;-77
2024/02/11 09:23:35;;;;;;;;;2.25;1.50;;;;;;;;5050117;28;9620;-75
2024/02/11 09:26:05;;;;;;;;;4.00;1.00;;;;;;;;5050326;28;9715;-77
2024/02/11 09:28:32;;;;;;;;;5.75;2.00;;;;;;;;5050037;28;9593;-75
2024/02/11 09:31:00;;;;;;;;;1.75;1.75;;;;;;;;5049823;28;9673;-82
2024/02/11 09:33:28;;;;;;;;;5.00;2.25;;;;;;;;5049966;28;9584;-76
2024/02/11 09:35:55;;;;;;;;;1.00;1.00;;;;;;;;5050075;28;9647;-75
2024/02/11 09:38:25;;;;;;;;;1.75;1.75;;;;;;;;5049638;28;9554;-74
2024/02/11 09:40:52;;;;;;;;;3.75;2.50;;;;;;;;5049619;28;9466;-75
2024/02/11 09:43:24;;;;;;;;;2.25;2.25;;;;;;;;5050023;28;9614;-75
2024/02/11 09:45:52;;;;;;;;;4.00;2.00;;;;;;;;5049529;28;9550;-78
2024/02/11 09:48:20;;;;;;;;;4.00;2.50;;;;;;;;5050319;28;9608;-80
2024/02/11 09:50:48;;;;;;;;;4.00;3.00;;;;;;;;5050417;28;9623;-78
2024/02/11 09:53:17;;;;;;;;;1.00;1.00;;;;;;;;5050363;28;10315;-77
2024/02/11 09:55:45;;;;;;;;;2.00;2.00;;;;;;;;5048468;28;9428;-74
2024/02/11 09:58:13;;;;;;;;;1.00;1.00;;;;;;;;5049571;28;9558;-78
2024/02/11 10:00:41;;;;;;;;;6.00;1.33;;;;;;;;5048484;28;9296;-77
2024/02/11 10:03:09;;;;;;;;;5.00;2.00;;;;;;;;5049749;28;9313;-81
2024/02/11 10:05:40;;;;;;;;;4.00;2.00;;;;;;;;5050949;28;9386;-78
2024/02/11 10:08:15;;;;;;;;;0.33;0.33;;;;;;;;5055797;28;9564;-76
2024/02/11 10:10:43;;;;;;;;;4.33;1.00;;;;;;;;5050795;28;9460;-74
2024/02/11 10:13:19;;;;;;;;;4.67;1.00;;;;;;;;5051564;28;9338;-75
2024/02/11 10:15:48;;;;;;;;;1.00;1.00;;;;;;;;5049612;28;10175;-79
2024/02/11 10:18:17;;;;;;;;;2.00;2.00;;;;;;;;5049568;28;10104;-77
2024/02/11 10:20:46;;;;;;;;;2.00;2.00;;;;;;;;5048993;28;9435;-76
2024/02/11 10:23:14;;;;;;;;;2.00;2.00;;;;;;;;5048338;28;9420;-75
2024/02/11 10:25:47;;;;;;;;;2.00;2.00;;;;;;;;5048803;28;9453;-75
2024/02/11 10:28:14;;;;;;;;;2.00;2.00;;;;;;;;5049129;28;9327;-76
2024/02/11 10:30:41;;;;;;;;;1.00;1.00;;;;;;;;5048894;28;9252;-75
2024/02/11 10:33:10;;;;;;;;;1.33;0.33;;;;;;;;5049043;28;9253;-78
2024/02/11 10:35:37;;;;;;;;;1.00;1.00;;;;;;;;5048198;28;9178;-76
2024/02/11 10:38:06;;;;;;;;;2.00;2.00;;;;;;;;5049415;28;9210;-75
2024/02/11 10:40:36;;;;;;;;;1.00;1.00;;;;;;;;5050636;28;9235;-76
2024/02/11 10:43:03;;;;;;;;;1.00;1.00;;;;;;;;5051302;28;10053;-76
2024/02/11 10:45:31;;;;;;;;;0.67;0.67;;;;;;;;5048287;28;9280;-77
2024/02/11 10:48:00;;;;;;;;;1.00;1.00;;;;;;;;5049402;28;9245;-76
2024/02/11 10:50:32;;;;;;;;;1.00;1.00;;;;;;;;5048608;28;9121;-76
2024/02/11 10:53:07;;;;;;;;;1.00;1.00;;;;;;;;5049105;28;9962;-75
2024/02/11 10:55:42;;;;;;;;;2.00;0.00;;;;;;;;5048713;28;9014;-76
2024/02/11 10:58:16;;;;;;;;;1.00;1.00;;;;;;;;5049576;28;9056;-77
2024/02/11 11:00:49;;;;;;;;;0.00;0.00;;;;;;;;5049242;28;8942;-77
2024/02/11 11:03:20;;;;;;;;;0.33;0.33;;;;;;;;5050167;28;8934;-75
2024/02/11 11:05:49;;;;;;;;;0.00;0.00;;;;;;;;5039293;28;8948;-76
2024/02/11 11:08:19;;;;;;;;;2.00;2.00;;;;;;;;5048506;28;9019;-76
2024/02/11 11:10:47;;;;;;;;;1.00;1.00;;;;;;;;5048471;28;9781;-76
2024/02/11 11:13:17;;;;;;;;;1.75;0.00;;;;;;;;5046538;28;9237;-77
2024/02/11 11:15:44;;;;;;;;;0.67;0.00;;;;;;;;5046864;28;8905;-79
2024/02/11 11:18:12;;;;;;;;;1.67;0.33;;;;;;;;5047911;28;8984;-77
2024/02/11 11:20:53;;;;;;;;;0.33;0.33;;;;;;;;5047592;28;9022;-78
2024/02/11 11:23:20;;;;;;;;;2.00;1.00;;;;;;;;5046674;28;8948;-78
2024/02/11 11:25:57;;;;;;;;;0.00;0.00;;;;;;;;5047626;28;8979;-78
2024/02/11 11:28:30;;;;;;;;;0.67;0.67;;;;;;;;5040658;28;8933;-76
2024/02/11 11:30:58;;;;;;;;;3.00;1.00;;;;;;;;5046997;28;8903;-77
2024/02/11 11:33:27;;;;;;;;;1.33;1.33;;;;;;;;5047589;28;8929;-75
2024/02/11 11:35:59;;;;;;;;;2.00;1.00;;;;;;;;5047998;28;8960;-75
2024/02/11 11:38:27;;;;;;;;;1.50;1.00;;;;;;;;5047146;28;9034;-74
2024/02/11 11:40:56;;;;;;;;;0.00;0.00;;;;;;;;5046850;28;9597;-81
2024/02/11 11:43:24;;;;;;;;;3.00;3.00;;;;;;;;5047865;28;9000;-77
2024/02/11 11:45:56;;;;;;;;;1.00;1.00;;;;;;;;5047592;28;8940;-75
2024/02/11 11:48:35;;;;;;;;;1.00;0.00;;;;;;;;5048199;28;8964;-82
2024/02/11 11:51:07;;;;;;;;;2.50;1.50;;;;;;;;5036301;28;8904;-78
2024/02/11 11:53:35;;;;;;;;;2.00;2.00;;;;;;;;5048239;28;8975;-76
2024/02/11 11:56:03;;;;;;;;;2.25;2.00;;;;;;;;5047730;28;8876;-77
2024/02/11 11:58:31;;;;;;;;;3.50;2.00;;;;;;;;5047482;28;8861;-77
2024/02/11 12:03:59;;;;;;;;;4.00;2.67;;;;;;;;5035786;28;8869;-79
2024/02/11 12:06:29;;;;;;;;;1.25;1.00;;;;;;;;5047478;28;8976;-79
2024/02/11 12:08:57;;;;;;;;;0.50;0.00;;;;;;;;5048199;28;8965;-77
2024/02/11 12:11:24;;;;;;;;;1.00;1.00;;;;;;;;5046871;28;8976;-75
2024/02/11 12:13:51;;;;;;;;;3.25;2.00;;;;;;;;5047844;28;8876;-81
2024/02/11 12:16:20;;;;;;;;;1.67;1.67;;;;;;;;5047736;28;8842;-78
2024/02/11 12:18:47;;;;;;;;;5.00;2.00;;;;;;;;5048169;28;8944;-77
2024/02/11 12:21:15;;;;;;;;;0.00;0.00;;;;;;;;5048047;28;9040;-77
2024/02/11 12:23:43;;;;;;;;;1.00;1.00;;;;;;;;5049294;28;8862;-80
2024/02/11 12:26:11;;;;;;;;;1.00;1.00;;;;;;;;5051229;28;8978;-79
2024/02/11 12:28:41;;;;;;;;;1.33;1.33;;;;;;;;5052733;28;8960;-80
2024/02/11 12:31:09;;;;;;;;;1.00;1.00;;;;;;;;5052483;28;9132;-76
2024/02/11 12:33:38;;;;;;;;;0.00;0.00;;;;;;;;5052776;28;9228;-80
2024/02/11 12:36:16;;;;;;;;;1.00;1.00;;;;;;;;5053855;28;9202;-76
2024/02/11 12:38:46;;;;;;;;;1.00;1.00;;;;;;;;5055912;28;9201;-79
2024/02/11 12:41:15;;;;;;;;;2.33;0.67;;;;;;;;5045367;28;9199;-76
2024/02/11 12:43:51;;;;;;;;;1.00;1.00;;;;;;;;5053440;28;9250;-82
2024/02/11 12:46:18;;;;;;;;;2.67;1.00;;;;;;;;5047546;28;9443;-77
2024/02/11 12:48:48;;;;;;;;;2.33;1.00;;;;;;;;5054265;28;9774;-76
2024/02/11 12:51:19;;;;;;;;;2.00;0.00;;;;;;;;5057331;28;9280;-76
2024/02/11 12:53:52;;;;;;;;;1.00;1.00;;;;;;;;5053011;28;9266;-78
2024/02/11 12:56:22;;;;;;;;;1.00;1.00;;;;;;;;5051075;28;9392;-77
2024/02/11 12:58:50;;;;;;;;;1.25;1.25;;;;;;;;5051269;28;9446;-79
2024/02/11 13:01:17;;;;;;;;;1.33;1.33;;;;;;;;5050671;28;9330;-76
2024/02/11 13:03:46;;;;;;;;;3.33;1.00;;;;;;;;5051067;28;9381;-75
2024/02/11 13:06:16;;;;;;;;;1.00;1.00;;;;;;;;5049970;28;9315;-77
2024/02/11 13:08:46;;;;;;;;;2.75;2.75;;;;;;;;5054004;28;9400;-77
2024/02/11 13:11:15;;;;;;;;;2.00;2.00;;;;;;;;5049933;28;9555;-79
2024/02/11 13:13:44;;;;;;;;;1.00;1.00;;;;;;;;5049832;28;9501;-78
2024/02/11 13:16:12;;;;;;;;;2.00;0.67;;;;;;;;5050109;28;9393;-82
2024/02/11 13:18:42;;;;;;;;;3.00;3.00;;;;;;;;5050203;28;9397;-80
2024/02/11 13:21:09;;;;;;;;;1.25;1.25;;;;;;;;5049742;28;9491;-73
2024/02/11 13:23:37;;;;;;;;;2.00;2.00;;;;;;;;5049765;28;10199;-73
2024/02/11 13:26:04;;;;;;;;;2.67;2.67;;;;;;;;5049422;28;10252;-74
2024/02/11 13:28:33;;;;;;;;;2.00;2.00;;;;;;;;5049601;28;9516;-74
2024/02/11 13:31:01;;;;;;;;;2.50;2.50;;;;;;;;5049036;28;10249;-73
2024/02/11 13:33:31;;;;;;;;;2.75;2.75;;;;;;;;5050323;28;9667;-72
2024/02/11 13:35:59;;;;;;;;;2.25;2.25;;;;;;;;5048799;28;9450;-75
2024/02/11 13:38:26;;;;;;;;;1.00;1.00;;;;;;;;5049285;28;9493;-74
2024/02/11 13:40:53;;;;;;;;;1.00;1.00;;;;;;;;5049175;28;9409;-75
2024/02/11 13:43:20;;;;;;;;;1.25;1.25;;;;;;;;5049246;28;9384;-74
2024/02/11 13:45:49;;;;;;;;;2.00;2.00;;;;;;;;5049215;28;9459;-75
2024/02/11 13:48:16;;;;;;;;;1.00;1.00;;;;;;;;5049690;28;9333;-75
2024/02/11 13:50:43;;;;;;;;;0.33;0.33;;;;;;;;5051564;28;9888;-75
2024/02/11 13:53:11;;;;;;;;;1.00;1.00;;;;;;;;5049289;28;9342;-74
2024/02/11 13:55:40;;;;;;;;;1.00;1.00;;;;;;;;5049148;28;9423;-76
2024/02/11 13:58:08;;;;;;;;;1.00;1.00;;;;;;;;5049527;28;10182;-77
2024/02/11 14:00:35;;;;;;;;;0.00;0.00;;;;;;;;5048574;28;9134;-77
2024/02/11 14:03:08;;;;;;;;;2.00;2.00;;;;;;;;5048895;28;9306;-74
2024/02/11 14:05:36;;;;;;;;;2.00;2.00;;;;;;;;5047393;28;9275;-77
2024/02/11 14:08:04;;;;;;;;;0.33;0.33;;;;;;;;5048960;28;9278;-75
2024/02/11 14:10:32;;;;;;;;;1.00;1.00;;;;;;;;5048600;28;9327;-74
2024/02/11 14:13:02;;;;;;;;;2.00;2.00;;;;;;;;5048864;28;9288;-76
2024/02/11 14:15:39;;;;;;;;;1.33;1.33;;;;;;;;5049061;28;9352;-75
2024/02/11 14:18:11;;;;;;;;;1.33;1.33;;;;;;;;5049135;28;9242;-76
2024/02/11 14:20:48;;;;;;;;;2.33;1.00;;;;;;;;5049533;28;9348;-78
2024/02/11 14:23:15;;;;;;;;;1.00;1.00;;;;;;;;5032080;28;9319;-73
2024/02/11 14:26:08;;;;;;;;;1.67;1.67;;;;;;;;5049345;28;9643;-75
2024/02/11 14:31:36;;;;;;;;;1.00;1.00;;;;;;;;5063015;28;9398;-75
2024/02/11 14:34:06;;;;;;;;;1.00;1.00;;;;;;;;5056814;28;9257;-75
2024/02/11 14:36:47;;;;;;;;;1.00;1.00;;;;;;;;5037826;28;9299;-75
2024/02/11 14:39:14;;;;;;;;;1.00;1.00;;;;;;;;5049881;28;9243;-76
2024/02/11 14:41:42;;;;;;;;;1.67;1.67;;;;;;;;5048297;28;9198;-75
2024/02/11 14:44:12;;;;;;;;;2.00;2.00;;;;;;;;5048187;28;10032;-73
2024/02/11 14:46:42;;;;;;;;;1.00;1.00;;;;;;;;5048388;28;9338;-76
2024/02/11 14:49:13;;;;;;;;;0.00;0.00;;;;;;;;5048565;28;9250;-74
2024/02/11 14:51:43;;;;;;;;;1.00;1.00;;;;;;;;5048208;28;9082;-75
2024/02/11 14:54:11;;;;;;;;;2.00;2.00;;;;;;;;5047867;28;10055;-73
2024/02/11 14:56:39;;;;;;;;;1.00;1.00;;;;;;;;5048203;28;9339;-74
2024/02/11 14:59:06;;;;;;;;;3.00;1.00;;;;;;;;5046883;28;9236;-74